sensor_id;sensor_type;location;lat;lon;timestamp;P1;durP1;ratioP1;P2;durP2;ratioP2
38581;SDS011;24349;53.720;10.014;2023-05-07T00:01:07;15.27;;;11.35;;
38581;SDS011;24349;53.720;10.014;2023-05-07T00:03:33;12.93;;;9.80;;
38581;SDS011;24349;53.720;10.014;2023-05-07T00:05:59;13.68;;;10.02;;
38581;SDS011;24349;53.720;10.014;2023-05-07T00:08:24;15.18;;;10.20;;
38581;SDS011;24349;53.720;10.014;2023-05-07T00:10:50;15.05;;;12.05;;
38581;SDS011;24349;53.720;10.014;2023-05-07T00:13:16;16.98;;;11.55;;
38581;SDS011;24349;53.720;10.014;2023-05-07T00:15:41;14.00;;;11.32;;
38581;SDS011;24349;53.720;10.014;2023-05-07T00:18:07;14.25;;;10.85;;
38581;SDS011;24349;53.720;10.014;2023-05-07T00:20:32;16.08;;;11.32;;
38581;SDS011;24349;53.720;10.014;2023-05-07T00:22:58;14.27;;;11.05;;
38581;SDS011;24349;53.720;10.014;2023-05-07T00:25:24;15.05;;;10.35;;
38581;SDS011;24349;53.720;10.014;2023-05-07T00:27:49;16.05;;;11.05;;
38581;SDS011;24349;53.720;10.014;2023-05-07T00:30:15;15.02;;;11.20;;
38581;SDS011;24349;53.720;10.014;2023-05-07T00:32:40;15.82;;;10.60;;
38581;SDS011;24349;53.720;10.014;2023-05-07T00:35:06;14.93;;;10.30;;
38581;SDS011;24349;53.720;10.014;2023-05-07T00:37:32;15.25;;;12.68;;
38581;SDS011;24349;53.720;10.014;2023-05-07T00:39:58;14.88;;;9.98;;
38581;SDS011;24349;53.720;10.014;2023-05-07T00:42:24;13.65;;;10.50;;
38581;SDS011;24349;53.720;10.014;2023-05-07T00:44:49;14.98;;;11.65;;
38581;SDS011;24349;53.720;10.014;2023-05-07T00:47:15;14.65;;;11.13;;
38581;SDS011;24349;53.720;10.014;2023-05-07T00:49:42;14.27;;;10.68;;
38581;SDS011;24349;53.720;10.014;2023-05-07T00:52:10;14.07;;;10.35;;
38581;SDS011;24349;53.720;10.014;2023-05-07T00:54:38;14.90;;;11.18;;
38581;SDS011;24349;53.720;10.014;2023-05-07T00:57:05;13.38;;;10.50;;
38581;SDS011;24349;53.720;10.014;2023-05-07T00:59:31;17.25;;;12.38;;
38581;SDS011;24349;53.720;10.014;2023-05-07T01:01:57;16.60;;;13.18;;
38581;SDS011;24349;53.720;10.014;2023-05-07T01:04:23;14.38;;;9.95;;
38581;SDS011;24349;53.720;10.014;2023-05-07T01:06:49;17.27;;;12.50;;
38581;SDS011;24349;53.720;10.014;2023-05-07T01:09:16;15.73;;;11.65;;
38581;SDS011;24349;53.720;10.014;2023-05-07T01:11:42;14.65;;;11.25;;
38581;SDS011;24349;53.720;10.014;2023-05-07T01:14:08;16.05;;;12.27;;
38581;SDS011;24349;53.720;10.014;2023-05-07T01:16:35;14.00;;;10.82;;
38581;SDS011;24349;53.720;10.014;2023-05-07T01:19:01;16.10;;;11.10;;
38581;SDS011;24349;53.720;10.014;2023-05-07T01:21:27;15.50;;;11.20;;
38581;SDS011;24349;53.720;10.014;2023-05-07T01:23:58;14.52;;;10.73;;
38581;SDS011;24349;53.720;10.014;2023-05-07T01:26:24;16.65;;;12.02;;
38581;SDS011;24349;53.720;10.014;2023-05-07T01:28:49;14.95;;;11.68;;
38581;SDS011;24349;53.720;10.014;2023-05-07T01:31:15;16.30;;;11.63;;
38581;SDS011;24349;53.720;10.014;2023-05-07T01:33:42;15.93;;;11.35;;
38581;SDS011;24349;53.720;10.014;2023-05-07T01:36:09;15.10;;;11.48;;
38581;SDS011;24349;53.720;10.014;2023-05-07T01:38:37;15.75;;;12.40;;
38581;SDS011;24349;53.720;10.014;2023-05-07T01:41:03;13.32;;;10.20;;
38581;SDS011;24349;53.720;10.014;2023-05-07T01:43:29;13.82;;;10.05;;
38581;SDS011;24349;53.720;10.014;2023-05-07T01:45:56;15.43;;;11.00;;
38581;SDS011;24349;53.720;10.014;2023-05-07T01:48:22;14.27;;;10.93;;
38581;SDS011;24349;53.720;10.014;2023-05-07T01:50:49;16.92;;;13.23;;
38581;SDS011;24349;53.720;10.014;2023-05-07T01:53:16;16.15;;;11.65;;
38581;SDS011;24349;53.720;10.014;2023-05-07T01:55:41;16.08;;;10.88;;
38581;SDS011;24349;53.720;10.014;2023-05-07T01:58:07;14.82;;;10.70;;
38581;SDS011;24349;53.720;10.014;2023-05-07T02:00:34;13.95;;;10.43;;
38581;SDS011;24349;53.720;10.014;2023-05-07T02:02:59;17.17;;;11.52;;
38581;SDS011;24349;53.720;10.014;2023-05-07T02:05:25;15.75;;;11.20;;
38581;SDS011;24349;53.720;10.014;2023-05-07T02:07:51;14.35;;;10.43;;
38581;SDS011;24349;53.720;10.014;2023-05-07T02:10:16;17.33;;;12.45;;
38581;SDS011;24349;53.720;10.014;2023-05-07T02:12:42;14.45;;;11.38;;
38581;SDS011;24349;53.720;10.014;2023-05-07T02:15:07;16.27;;;11.48;;
38581;SDS011;24349;53.720;10.014;2023-05-07T02:17:33;15.82;;;11.05;;
38581;SDS011;24349;53.720;10.014;2023-05-07T02:20:00;14.98;;;9.05;;
38581;SDS011;24349;53.720;10.014;2023-05-07T02:22:25;13.90;;;10.45;;
38581;SDS011;24349;53.720;10.014;2023-05-07T02:24:51;16.10;;;11.60;;
38581;SDS011;24349;53.720;10.014;2023-05-07T02:27:17;13.38;;;10.02;;
38581;SDS011;24349;53.720;10.014;2023-05-07T02:29:42;14.40;;;10.90;;
38581;SDS011;24349;53.720;10.014;2023-05-07T02:32:08;14.82;;;10.57;;
38581;SDS011;24349;53.720;10.014;2023-05-07T02:34:33;13.75;;;10.55;;
38581;SDS011;24349;53.720;10.014;2023-05-07T02:36:59;13.52;;;9.30;;
38581;SDS011;24349;53.720;10.014;2023-05-07T02:39:25;14.00;;;10.20;;
38581;SDS011;24349;53.720;10.014;2023-05-07T02:41:50;13.27;;;9.20;;
38581;SDS011;24349;53.720;10.014;2023-05-07T02:44:16;16.20;;;10.23;;
38581;SDS011;24349;53.720;10.014;2023-05-07T02:46:41;15.50;;;10.77;;
38581;SDS011;24349;53.720;10.014;2023-05-07T02:49:07;15.27;;;10.73;;
38581;SDS011;24349;53.720;10.014;2023-05-07T02:51:33;15.50;;;10.95;;
38581;SDS011;24349;53.720;10.014;2023-05-07T02:53:58;14.38;;;11.60;;
38581;SDS011;24349;53.720;10.014;2023-05-07T02:56:26;14.02;;;10.23;;
38581;SDS011;24349;53.720;10.014;2023-05-07T02:58:52;15.18;;;11.95;;
38581;SDS011;24349;53.720;10.014;2023-05-07T03:01:17;15.85;;;10.73;;
38581;SDS011;24349;53.720;10.014;2023-05-07T03:03:43;16.60;;;10.57;;
38581;SDS011;24349;53.720;10.014;2023-05-07T03:06:09;16.00;;;11.50;;
38581;SDS011;24349;53.720;10.014;2023-05-07T03:08:35;14.90;;;11.30;;
38581;SDS011;24349;53.720;10.014;2023-05-07T03:11:01;14.60;;;10.90;;
38581;SDS011;24349;53.720;10.014;2023-05-07T03:13:27;13.57;;;10.98;;
38581;SDS011;24349;53.720;10.014;2023-05-07T03:15:52;15.30;;;11.38;;
38581;SDS011;24349;53.720;10.014;2023-05-07T03:18:18;15.10;;;11.52;;
38581;SDS011;24349;53.720;10.014;2023-05-07T03:20:44;15.38;;;11.55;;
38581;SDS011;24349;53.720;10.014;2023-05-07T03:23:09;14.55;;;11.07;;
38581;SDS011;24349;53.720;10.014;2023-05-07T03:25:35;14.70;;;11.00;;
38581;SDS011;24349;53.720;10.014;2023-05-07T03:28:01;13.93;;;11.20;;
38581;SDS011;24349;53.720;10.014;2023-05-07T03:30:26;15.38;;;12.55;;
38581;SDS011;24349;53.720;10.014;2023-05-07T03:32:52;15.80;;;10.98;;
38581;SDS011;24349;53.720;10.014;2023-05-07T03:35:17;13.05;;;10.02;;
38581;SDS011;24349;53.720;10.014;2023-05-07T03:37:43;14.07;;;11.25;;
38581;SDS011;24349;53.720;10.014;2023-05-07T03:40:09;15.07;;;11.13;;
38581;SDS011;24349;53.720;10.014;2023-05-07T03:42:35;12.88;;;10.23;;
38581;SDS011;24349;53.720;10.014;2023-05-07T03:45:01;15.07;;;11.88;;
38581;SDS011;24349;53.720;10.014;2023-05-07T03:47:26;12.27;;;9.15;;
38581;SDS011;24349;53.720;10.014;2023-05-07T03:49:52;13.38;;;10.20;;
38581;SDS011;24349;53.720;10.014;2023-05-07T03:52:19;11.93;;;9.32;;
38581;SDS011;24349;53.720;10.014;2023-05-07T03:54:48;13.32;;;9.77;;
38581;SDS011;24349;53.720;10.014;2023-05-07T03:57:14;11.95;;;9.57;;
38581;SDS011;24349;53.720;10.014;2023-05-07T03:59:40;12.55;;;9.43;;
38581;SDS011;24349;53.720;10.014;2023-05-07T04:02:05;13.85;;;9.90;;
38581;SDS011;24349;53.720;10.014;2023-05-07T04:04:31;14.07;;;10.43;;
38581;SDS011;24349;53.720;10.014;2023-05-07T04:06:57;11.95;;;9.45;;
38581;SDS011;24349;53.720;10.014;2023-05-07T04:09:24;13.38;;;10.60;;
38581;SDS011;24349;53.720;10.014;2023-05-07T04:11:50;12.90;;;10.73;;
38581;SDS011;24349;53.720;10.014;2023-05-07T04:14:16;13.02;;;9.38;;
38581;SDS011;24349;53.720;10.014;2023-05-07T04:16:41;15.27;;;9.43;;
38581;SDS011;24349;53.720;10.014;2023-05-07T04:19:07;13.73;;;9.88;;
38581;SDS011;24349;53.720;10.014;2023-05-07T04:21:32;14.25;;;8.68;;
38581;SDS011;24349;53.720;10.014;2023-05-07T04:23:58;13.07;;;9.65;;
38581;SDS011;24349;53.720;10.014;2023-05-07T04:26:24;11.70;;;8.13;;
38581;SDS011;24349;53.720;10.014;2023-05-07T04:28:49;13.90;;;10.27;;
38581;SDS011;24349;53.720;10.014;2023-05-07T04:31:15;13.20;;;9.25;;
38581;SDS011;24349;53.720;10.014;2023-05-07T04:33:41;12.57;;;9.57;;
38581;SDS011;24349;53.720;10.014;2023-05-07T04:36:07;14.63;;;10.57;;
38581;SDS011;24349;53.720;10.014;2023-05-07T04:38:33;11.73;;;9.18;;
38581;SDS011;24349;53.720;10.014;2023-05-07T04:41:05;11.57;;;9.00;;
38581;SDS011;24349;53.720;10.014;2023-05-07T04:45:57;13.35;;;10.63;;
38581;SDS011;24349;53.720;10.014;2023-05-07T04:48:23;13.52;;;9.20;;
38581;SDS011;24349;53.720;10.014;2023-05-07T04:50:49;12.75;;;9.07;;
38581;SDS011;24349;53.720;10.014;2023-05-07T04:53:15;12.90;;;9.27;;
38581;SDS011;24349;53.720;10.014;2023-05-07T04:55:41;12.85;;;9.52;;
38581;SDS011;24349;53.720;10.014;2023-05-07T04:58:07;15.05;;;9.25;;
38581;SDS011;24349;53.720;10.014;2023-05-07T05:00:33;12.95;;;9.80;;
38581;SDS011;24349;53.720;10.014;2023-05-07T05:02:59;11.82;;;9.30;;
38581;SDS011;24349;53.720;10.014;2023-05-07T05:05:25;13.73;;;9.63;;
38581;SDS011;24349;53.720;10.014;2023-05-07T05:07:50;11.75;;;8.15;;
38581;SDS011;24349;53.720;10.014;2023-05-07T05:10:16;11.48;;;7.32;;
38581;SDS011;24349;53.720;10.014;2023-05-07T05:12:42;11.25;;;7.30;;
38581;SDS011;24349;53.720;10.014;2023-05-07T05:15:10;10.95;;;7.72;;
38581;SDS011;24349;53.720;10.014;2023-05-07T05:17:37;11.27;;;8.07;;
38581;SDS011;24349;53.720;10.014;2023-05-07T05:20:03;10.88;;;7.28;;
38581;SDS011;24349;53.720;10.014;2023-05-07T05:22:29;12.30;;;8.88;;
38581;SDS011;24349;53.720;10.014;2023-05-07T05:24:56;10.93;;;8.55;;
38581;SDS011;24349;53.720;10.014;2023-05-07T05:27:22;11.25;;;7.90;;
38581;SDS011;24349;53.720;10.014;2023-05-07T05:29:47;12.05;;;8.30;;
38581;SDS011;24349;53.720;10.014;2023-05-07T05:32:13;10.70;;;7.80;;
38581;SDS011;24349;53.720;10.014;2023-05-07T05:34:39;11.02;;;8.25;;
38581;SDS011;24349;53.720;10.014;2023-05-07T05:37:04;12.57;;;8.93;;
38581;SDS011;24349;53.720;10.014;2023-05-07T05:39:30;12.55;;;7.90;;
38581;SDS011;24349;53.720;10.014;2023-05-07T05:41:55;12.35;;;7.85;;
38581;SDS011;24349;53.720;10.014;2023-05-07T05:44:21;12.68;;;9.55;;
38581;SDS011;24349;53.720;10.014;2023-05-07T05:46:47;14.13;;;8.90;;
38581;SDS011;24349;53.720;10.014;2023-05-07T05:49:14;12.23;;;10.20;;
38581;SDS011;24349;53.720;10.014;2023-05-07T05:51:40;11.38;;;7.65;;
38581;SDS011;24349;53.720;10.014;2023-05-07T05:54:05;12.10;;;8.18;;
38581;SDS011;24349;53.720;10.014;2023-05-07T05:56:31;10.55;;;8.20;;
38581;SDS011;24349;53.720;10.014;2023-05-07T05:58:57;10.45;;;7.50;;
38581;SDS011;24349;53.720;10.014;2023-05-07T06:01:23;10.73;;;8.10;;
38581;SDS011;24349;53.720;10.014;2023-05-07T06:03:48;11.63;;;7.85;;
38581;SDS011;24349;53.720;10.014;2023-05-07T06:06:14;10.75;;;8.18;;
38581;SDS011;24349;53.720;10.014;2023-05-07T06:08:40;10.15;;;7.25;;
38581;SDS011;24349;53.720;10.014;2023-05-07T06:11:06;11.13;;;7.68;;
38581;SDS011;24349;53.720;10.014;2023-05-07T06:13:31;10.60;;;7.63;;
38581;SDS011;24349;53.720;10.014;2023-05-07T06:15:57;10.52;;;7.32;;
38581;SDS011;24349;53.720;10.014;2023-05-07T06:18:23;10.07;;;7.13;;
38581;SDS011;24349;53.720;10.014;2023-05-07T06:20:49;9.70;;;7.57;;
38581;SDS011;24349;53.720;10.014;2023-05-07T06:23:14;11.00;;;9.10;;
38581;SDS011;24349;53.720;10.014;2023-05-07T06:25:40;11.85;;;7.88;;
38581;SDS011;24349;53.720;10.014;2023-05-07T06:28:05;9.88;;;7.00;;
38581;SDS011;24349;53.720;10.014;2023-05-07T06:30:33;13.57;;;7.03;;
38581;SDS011;24349;53.720;10.014;2023-05-07T06:32:59;9.27;;;6.28;;
38581;SDS011;24349;53.720;10.014;2023-05-07T06:35:24;9.98;;;7.43;;
38581;SDS011;24349;53.720;10.014;2023-05-07T06:37:50;10.70;;;7.70;;
38581;SDS011;24349;53.720;10.014;2023-05-07T06:40:15;9.95;;;7.63;;
38581;SDS011;24349;53.720;10.014;2023-05-07T06:42:41;10.85;;;7.43;;
38581;SDS011;24349;53.720;10.014;2023-05-07T06:45:07;10.35;;;7.80;;
38581;SDS011;24349;53.720;10.014;2023-05-07T06:47:33;10.60;;;7.43;;
38581;SDS011;24349;53.720;10.014;2023-05-07T06:49:59;9.98;;;6.88;;
38581;SDS011;24349;53.720;10.014;2023-05-07T06:52:25;10.13;;;7.68;;
38581;SDS011;24349;53.720;10.014;2023-05-07T06:54:51;12.38;;;7.22;;
38581;SDS011;24349;53.720;10.014;2023-05-07T06:57:16;9.45;;;7.55;;
38581;SDS011;24349;53.720;10.014;2023-05-07T06:59:42;9.57;;;6.70;;
38581;SDS011;24349;53.720;10.014;2023-05-07T07:02:07;10.50;;;7.80;;
38581;SDS011;24349;53.720;10.014;2023-05-07T07:04:33;11.93;;;8.38;;
38581;SDS011;24349;53.720;10.014;2023-05-07T07:06:59;10.43;;;7.57;;
38581;SDS011;24349;53.720;10.014;2023-05-07T07:09:24;10.27;;;7.97;;
38581;SDS011;24349;53.720;10.014;2023-05-07T07:11:50;9.73;;;6.65;;
38581;SDS011;24349;53.720;10.014;2023-05-07T07:14:16;12.95;;;7.22;;
38581;SDS011;24349;53.720;10.014;2023-05-07T07:16:41;9.02;;;6.40;;
38581;SDS011;24349;53.720;10.014;2023-05-07T07:19:07;8.43;;;5.97;;
38581;SDS011;24349;53.720;10.014;2023-05-07T07:21:33;9.05;;;6.65;;
38581;SDS011;24349;53.720;10.014;2023-05-07T07:23:58;9.05;;;6.10;;
38581;SDS011;24349;53.720;10.014;2023-05-07T07:26:24;8.52;;;6.40;;
38581;SDS011;24349;53.720;10.014;2023-05-07T07:28:50;10.45;;;6.95;;
38581;SDS011;24349;53.720;10.014;2023-05-07T07:31:15;8.70;;;6.13;;
38581;SDS011;24349;53.720;10.014;2023-05-07T07:33:41;8.43;;;6.47;;
38581;SDS011;24349;53.720;10.014;2023-05-07T07:36:06;11.10;;;6.30;;
38581;SDS011;24349;53.720;10.014;2023-05-07T07:38:32;9.00;;;6.35;;
38581;SDS011;24349;53.720;10.014;2023-05-07T07:40:58;8.95;;;6.03;;
38581;SDS011;24349;53.720;10.014;2023-05-07T07:43:24;9.85;;;6.43;;
38581;SDS011;24349;53.720;10.014;2023-05-07T07:45:50;8.18;;;6.38;;
38581;SDS011;24349;53.720;10.014;2023-05-07T07:48:16;8.20;;;6.22;;
38581;SDS011;24349;53.720;10.014;2023-05-07T07:50:41;8.85;;;5.80;;
38581;SDS011;24349;53.720;10.014;2023-05-07T07:53:07;8.15;;;6.65;;
38581;SDS011;24349;53.720;10.014;2023-05-07T07:55:34;9.13;;;6.28;;
38581;SDS011;24349;53.720;10.014;2023-05-07T07:58:03;8.05;;;6.25;;
38581;SDS011;24349;53.720;10.014;2023-05-07T08:00:29;9.02;;;6.53;;
38581;SDS011;24349;53.720;10.014;2023-05-07T08:02:54;9.18;;;6.40;;
38581;SDS011;24349;53.720;10.014;2023-05-07T08:05:20;7.13;;;5.28;;
38581;SDS011;24349;53.720;10.014;2023-05-07T08:07:46;8.93;;;6.25;;
38581;SDS011;24349;53.720;10.014;2023-05-07T08:10:16;9.30;;;6.28;;
38581;SDS011;24349;53.720;10.014;2023-05-07T08:12:46;9.38;;;6.10;;
38581;SDS011;24349;53.720;10.014;2023-05-07T08:15:15;7.97;;;6.13;;
38581;SDS011;24349;53.720;10.014;2023-05-07T08:17:41;8.48;;;4.82;;
38581;SDS011;24349;53.720;10.014;2023-05-07T08:20:08;8.10;;;5.82;;
38581;SDS011;24349;53.720;10.014;2023-05-07T08:22:34;8.60;;;5.45;;
38581;SDS011;24349;53.720;10.014;2023-05-07T08:25:00;8.80;;;6.07;;
38581;SDS011;24349;53.720;10.014;2023-05-07T08:27:26;7.95;;;5.00;;
38581;SDS011;24349;53.720;10.014;2023-05-07T08:29:52;9.57;;;5.38;;
38581;SDS011;24349;53.720;10.014;2023-05-07T08:32:17;7.82;;;5.25;;
38581;SDS011;24349;53.720;10.014;2023-05-07T08:34:43;8.38;;;5.32;;
38581;SDS011;24349;53.720;10.014;2023-05-07T08:37:09;6.75;;;4.90;;
38581;SDS011;24349;53.720;10.014;2023-05-07T08:39:34;8.38;;;5.03;;
38581;SDS011;24349;53.720;10.014;2023-05-07T08:42:00;6.78;;;5.05;;
38581;SDS011;24349;53.720;10.014;2023-05-07T08:44:30;7.20;;;5.50;;
38581;SDS011;24349;53.720;10.014;2023-05-07T08:46:59;7.38;;;4.90;;
38581;SDS011;24349;53.720;10.014;2023-05-07T08:49:27;8.25;;;5.25;;
38581;SDS011;24349;53.720;10.014;2023-05-07T08:51:53;7.10;;;4.70;;
38581;SDS011;24349;53.720;10.014;2023-05-07T08:54:18;8.13;;;5.25;;
38581;SDS011;24349;53.720;10.014;2023-05-07T08:56:46;7.63;;;4.90;;
38581;SDS011;24349;53.720;10.014;2023-05-07T08:59:11;6.53;;;4.88;;
38581;SDS011;24349;53.720;10.014;2023-05-07T09:01:37;8.38;;;5.20;;
38581;SDS011;24349;53.720;10.014;2023-05-07T09:04:03;6.68;;;5.25;;
38581;SDS011;24349;53.720;10.014;2023-05-07T09:06:30;6.93;;;4.78;;
38581;SDS011;24349;53.720;10.014;2023-05-07T09:08:56;7.60;;;5.05;;
38581;SDS011;24349;53.720;10.014;2023-05-07T09:11:23;7.80;;;4.80;;
38581;SDS011;24349;53.720;10.014;2023-05-07T09:13:56;8.70;;;5.60;;
38581;SDS011;24349;53.720;10.014;2023-05-07T09:16:23;8.00;;;5.78;;
38581;SDS011;24349;53.720;10.014;2023-05-07T09:18:50;8.23;;;5.50;;
38581;SDS011;24349;53.720;10.014;2023-05-07T09:21:17;8.20;;;5.80;;
38581;SDS011;24349;53.720;10.014;2023-05-07T09:23:44;7.68;;;5.45;;
38581;SDS011;24349;53.720;10.014;2023-05-07T09:26:09;8.07;;;5.60;;
38581;SDS011;24349;53.720;10.014;2023-05-07T09:28:43;7.75;;;5.40;;
38581;SDS011;24349;53.720;10.014;2023-05-07T09:31:09;6.75;;;4.80;;
38581;SDS011;24349;53.720;10.014;2023-05-07T09:33:35;8.15;;;5.93;;
38581;SDS011;24349;53.720;10.014;2023-05-07T09:36:02;8.20;;;5.57;;
38581;SDS011;24349;53.720;10.014;2023-05-07T09:38:28;6.95;;;4.90;;
38581;SDS011;24349;53.720;10.014;2023-05-07T09:43:34;7.95;;;4.65;;
38581;SDS011;24349;53.720;10.014;2023-05-07T09:46:14;8.25;;;4.90;;
38581;SDS011;24349;53.720;10.014;2023-05-07T09:48:42;7.00;;;5.18;;
38581;SDS011;24349;53.720;10.014;2023-05-07T09:51:15;8.52;;;5.68;;
38581;SDS011;24349;53.720;10.014;2023-05-07T09:56:18;7.72;;;5.20;;
38581;SDS011;24349;53.720;10.014;2023-05-07T09:58:45;7.55;;;5.10;;
38581;SDS011;24349;53.720;10.014;2023-05-07T10:01:12;7.05;;;5.00;;
38581;SDS011;24349;53.720;10.014;2023-05-07T10:03:40;6.00;;;4.25;;
38581;SDS011;24349;53.720;10.014;2023-05-07T10:06:08;9.18;;;5.10;;
38581;SDS011;24349;53.720;10.014;2023-05-07T10:08:35;8.00;;;5.50;;
38581;SDS011;24349;53.720;10.014;2023-05-07T10:11:01;8.77;;;5.00;;
38581;SDS011;24349;53.720;10.014;2023-05-07T10:13:28;7.80;;;4.65;;
38581;SDS011;24349;53.720;10.014;2023-05-07T10:15:54;6.38;;;4.72;;
38581;SDS011;24349;53.720;10.014;2023-05-07T10:18:21;7.43;;;4.63;;
38581;SDS011;24349;53.720;10.014;2023-05-07T10:20:54;6.72;;;4.47;;
38581;SDS011;24349;53.720;10.014;2023-05-07T10:23:33;7.13;;;4.35;;
38581;SDS011;24349;53.720;10.014;2023-05-07T10:25:59;7.13;;;4.97;;
38581;SDS011;24349;53.720;10.014;2023-05-07T10:28:28;8.63;;;5.47;;
38581;SDS011;24349;53.720;10.014;2023-05-07T10:33:32;8.30;;;5.20;;
38581;SDS011;24349;53.720;10.014;2023-05-07T10:36:00;7.18;;;4.20;;
38581;SDS011;24349;53.720;10.014;2023-05-07T10:38:29;6.03;;;4.32;;
38581;SDS011;24349;53.720;10.014;2023-05-07T10:40:55;6.55;;;4.03;;
38581;SDS011;24349;53.720;10.014;2023-05-07T10:43:21;6.88;;;3.97;;
38581;SDS011;24349;53.720;10.014;2023-05-07T10:51:25;7.00;;;4.68;;
38581;SDS011;24349;53.720;10.014;2023-05-07T10:56:50;7.35;;;4.13;;
38581;SDS011;24349;53.720;10.014;2023-05-07T11:01:56;6.20;;;3.70;;
38581;SDS011;24349;53.720;10.014;2023-05-07T11:04:30;5.97;;;4.03;;
38581;SDS011;24349;53.720;10.014;2023-05-07T11:15:06;5.85;;;3.75;;
38581;SDS011;24349;53.720;10.014;2023-05-07T11:17:33;5.30;;;3.40;;
38581;SDS011;24349;53.720;10.014;2023-05-07T11:20:00;6.60;;;3.72;;
38581;SDS011;24349;53.720;10.014;2023-05-07T11:25:00;5.70;;;3.97;;
38581;SDS011;24349;53.720;10.014;2023-05-07T11:27:30;8.13;;;3.97;;
38581;SDS011;24349;53.720;10.014;2023-05-07T11:29:56;4.75;;;2.97;;
38581;SDS011;24349;53.720;10.014;2023-05-07T11:32:22;5.43;;;3.55;;
38581;SDS011;24349;53.720;10.014;2023-05-07T11:34:52;5.97;;;3.67;;
38581;SDS011;24349;53.720;10.014;2023-05-07T11:37:19;5.53;;;3.55;;
38581;SDS011;24349;53.720;10.014;2023-05-07T11:39:45;5.38;;;3.67;;
38581;SDS011;24349;53.720;10.014;2023-05-07T11:42:30;5.35;;;3.42;;
38581;SDS011;24349;53.720;10.014;2023-05-07T11:44:57;6.45;;;3.35;;
38581;SDS011;24349;53.720;10.014;2023-05-07T11:47:23;5.85;;;3.25;;
38581;SDS011;24349;53.720;10.014;2023-05-07T11:49:53;5.28;;;3.58;;
38581;SDS011;24349;53.720;10.014;2023-05-07T11:52:20;5.50;;;3.33;;
38581;SDS011;24349;53.720;10.014;2023-05-07T11:54:54;5.97;;;3.05;;
38581;SDS011;24349;53.720;10.014;2023-05-07T11:57:21;5.25;;;3.30;;
38581;SDS011;24349;53.720;10.014;2023-05-07T11:59:48;5.68;;;3.55;;
38581;SDS011;24349;53.720;10.014;2023-05-07T12:02:21;5.75;;;2.92;;
38581;SDS011;24349;53.720;10.014;2023-05-07T12:04:47;5.72;;;3.50;;
38581;SDS011;24349;53.720;10.014;2023-05-07T12:07:13;5.15;;;3.10;;
38581;SDS011;24349;53.720;10.014;2023-05-07T12:09:42;6.45;;;3.30;;
38581;SDS011;24349;53.720;10.014;2023-05-07T12:12:09;6.18;;;3.25;;
38581;SDS011;24349;53.720;10.014;2023-05-07T12:14:41;4.50;;;3.03;;
38581;SDS011;24349;53.720;10.014;2023-05-07T12:17:09;6.25;;;3.17;;
38581;SDS011;24349;53.720;10.014;2023-05-07T12:19:35;4.88;;;2.88;;
38581;SDS011;24349;53.720;10.014;2023-05-07T12:22:03;5.18;;;2.50;;
38581;SDS011;24349;53.720;10.014;2023-05-07T12:24:30;5.28;;;3.00;;
38581;SDS011;24349;53.720;10.014;2023-05-07T12:27:21;4.20;;;2.50;;
38581;SDS011;24349;53.720;10.014;2023-05-07T12:29:48;4.93;;;2.60;;
38581;SDS011;24349;53.720;10.014;2023-05-07T12:32:19;4.47;;;2.97;;
38581;SDS011;24349;53.720;10.014;2023-05-07T12:34:46;4.60;;;2.50;;
38581;SDS011;24349;53.720;10.014;2023-05-07T12:37:14;6.72;;;2.80;;
38581;SDS011;24349;53.720;10.014;2023-05-07T12:39:50;4.32;;;2.35;;
38581;SDS011;24349;53.720;10.014;2023-05-07T12:42:32;6.63;;;2.40;;
38581;SDS011;24349;53.720;10.014;2023-05-07T12:45:07;5.18;;;2.72;;
38581;SDS011;24349;53.720;10.014;2023-05-07T12:47:44;4.55;;;2.40;;
38581;SDS011;24349;53.720;10.014;2023-05-07T12:50:10;5.15;;;3.15;;
38581;SDS011;24349;53.720;10.014;2023-05-07T12:52:36;4.85;;;2.60;;
38581;SDS011;24349;53.720;10.014;2023-05-07T12:55:06;4.53;;;2.35;;
38581;SDS011;24349;53.720;10.014;2023-05-07T12:57:39;5.05;;;2.60;;
38581;SDS011;24349;53.720;10.014;2023-05-07T13:00:13;5.05;;;2.60;;
38581;SDS011;24349;53.720;10.014;2023-05-07T13:02:39;4.15;;;2.20;;
38581;SDS011;24349;53.720;10.014;2023-05-07T13:05:07;4.85;;;2.63;;
38581;SDS011;24349;53.720;10.014;2023-05-07T13:07:33;4.75;;;2.28;;
38581;SDS011;24349;53.720;10.014;2023-05-07T13:09:59;5.13;;;2.20;;
38581;SDS011;24349;53.720;10.014;2023-05-07T13:12:24;5.40;;;2.25;;
38581;SDS011;24349;53.720;10.014;2023-05-07T13:14:50;4.03;;;2.08;;
38581;SDS011;24349;53.720;10.014;2023-05-07T13:17:16;5.03;;;2.40;;
38581;SDS011;24349;53.720;10.014;2023-05-07T13:19:41;4.10;;;2.20;;
38581;SDS011;24349;53.720;10.014;2023-05-07T13:22:07;5.72;;;2.25;;
38581;SDS011;24349;53.720;10.014;2023-05-07T13:24:32;4.82;;;2.22;;
38581;SDS011;24349;53.720;10.014;2023-05-07T13:26:58;3.67;;;1.98;;
38581;SDS011;24349;53.720;10.014;2023-05-07T13:29:24;4.45;;;2.10;;
38581;SDS011;24349;53.720;10.014;2023-05-07T13:31:54;4.30;;;2.17;;
38581;SDS011;24349;53.720;10.014;2023-05-07T13:34:20;4.47;;;2.40;;
38581;SDS011;24349;53.720;10.014;2023-05-07T13:36:45;3.70;;;2.03;;
38581;SDS011;24349;53.720;10.014;2023-05-07T13:39:11;3.85;;;1.85;;
38581;SDS011;24349;53.720;10.014;2023-05-07T13:41:37;4.18;;;2.20;;
38581;SDS011;24349;53.720;10.014;2023-05-07T13:44:03;5.35;;;2.03;;
38581;SDS011;24349;53.720;10.014;2023-05-07T13:46:29;4.10;;;2.25;;
38581;SDS011;24349;53.720;10.014;2023-05-07T13:48:54;3.92;;;2.22;;
38581;SDS011;24349;53.720;10.014;2023-05-07T13:51:20;3.90;;;2.08;;
38581;SDS011;24349;53.720;10.014;2023-05-07T13:53:46;4.30;;;2.28;;
38581;SDS011;24349;53.720;10.014;2023-05-07T13:56:12;5.75;;;2.40;;
38581;SDS011;24349;53.720;10.014;2023-05-07T13:58:39;4.00;;;2.20;;
38581;SDS011;24349;53.720;10.014;2023-05-07T14:01:05;4.25;;;2.17;;
38581;SDS011;24349;53.720;10.014;2023-05-07T14:03:30;5.47;;;2.20;;
38581;SDS011;24349;53.720;10.014;2023-05-07T14:05:58;3.80;;;2.10;;
38581;SDS011;24349;53.720;10.014;2023-05-07T14:08:25;4.18;;;1.90;;
38581;SDS011;24349;53.720;10.014;2023-05-07T14:10:51;4.72;;;2.20;;
38581;SDS011;24349;53.720;10.014;2023-05-07T14:13:16;4.50;;;1.90;;
38581;SDS011;24349;53.720;10.014;2023-05-07T14:15:42;4.50;;;2.15;;
38581;SDS011;24349;53.720;10.014;2023-05-07T14:18:11;3.78;;;2.00;;
38581;SDS011;24349;53.720;10.014;2023-05-07T14:20:40;4.20;;;2.10;;
38581;SDS011;24349;53.720;10.014;2023-05-07T14:23:08;4.03;;;1.90;;
38581;SDS011;24349;53.720;10.014;2023-05-07T14:25:33;3.50;;;1.80;;
38581;SDS011;24349;53.720;10.014;2023-05-07T14:27:59;4.90;;;2.20;;
38581;SDS011;24349;53.720;10.014;2023-05-07T14:30:25;5.55;;;1.83;;
38581;SDS011;24349;53.720;10.014;2023-05-07T14:32:50;4.47;;;1.83;;
38581;SDS011;24349;53.720;10.014;2023-05-07T14:35:16;6.18;;;2.17;;
38581;SDS011;24349;53.720;10.014;2023-05-07T14:37:42;3.90;;;1.60;;
38581;SDS011;24349;53.720;10.014;2023-05-07T14:40:08;3.72;;;2.10;;
38581;SDS011;24349;53.720;10.014;2023-05-07T14:42:34;4.10;;;2.20;;
38581;SDS011;24349;53.720;10.014;2023-05-07T14:45:00;4.75;;;2.05;;
38581;SDS011;24349;53.720;10.014;2023-05-07T14:47:25;5.07;;;2.20;;
38581;SDS011;24349;53.720;10.014;2023-05-07T14:49:51;3.75;;;1.90;;
38581;SDS011;24349;53.720;10.014;2023-05-07T14:52:18;5.53;;;2.05;;
38581;SDS011;24349;53.720;10.014;2023-05-07T14:54:43;5.00;;;2.10;;